createdAt,value
2018-08-09T00:00:01.852Z,64.42
2018-08-09T00:00:42.607Z,65.11
2018-08-09T00:01:23.154Z,65.11
2018-08-09T00:02:03.632Z,65.2
2018-08-09T00:02:44.218Z,64.91
2018-08-09T00:03:24.770Z,64.52
2018-08-09T00:04:05.567Z,64.52
2018-08-09T00:04:46.112Z,64.23
2018-08-09T00:05:27.040Z,64.62
2018-08-09T00:06:07.566Z,64.72
2018-08-09T00:06:48.518Z,64.42
2018-08-09T00:07:29.049Z,64.72
2018-08-09T00:08:09.527Z,64.72
2018-08-09T00:08:50.058Z,63.94
2018-08-09T00:09:30.543Z,64.23
2018-08-09T00:10:11.040Z,63.94
2018-08-09T00:10:51.514Z,63.84
2018-08-09T00:11:32.030Z,63.84
2018-08-09T00:12:12.533Z,64.13
2018-08-09T00:12:53.002Z,63.84
2018-08-09T00:13:33.497Z,64.23
2018-08-09T00:14:13.962Z,63.75
2018-08-09T00:14:54.468Z,64.13
2018-08-09T00:15:34.956Z,64.13
2018-08-09T00:16:15.478Z,63.84
2018-08-09T00:16:55.944Z,63.94
2018-08-09T00:17:36.478Z,64.04
2018-08-09T00:18:17.021Z,64.42
2018-08-09T00:18:57.520Z,63.94
2018-08-09T00:19:38.145Z,63.94
2018-08-09T00:20:18.682Z,64.23
2018-08-09T00:20:59.170Z,64.32
2018-08-09T00:21:39.943Z,64.13
2018-08-09T00:22:20.428Z,64.32
2018-08-09T00:23:00.955Z,64.04
2018-08-09T00:23:41.526Z,65.01
2018-08-09T00:24:21.985Z,64.72
2018-08-09T00:25:02.628Z,65.11
2018-08-09T00:25:43.086Z,65.11
2018-08-09T00:26:23.642Z,64.39
2018-08-09T00:27:04.120Z,64.59
2018-08-09T00:27:44.936Z,63.94
2018-08-09T00:28:25.390Z,63.65
2018-08-09T00:29:05.933Z,63.94
2018-08-09T00:29:46.411Z,63.62
2018-08-09T00:30:26.934Z,63.32
2018-08-09T00:31:07.387Z,63.55
2018-08-09T00:31:47.875Z,63.84
2018-08-09T00:32:28.364Z,63.55
2018-08-09T00:33:08.857Z,63.75
2018-08-09T00:33:49.374Z,63.75
2018-08-09T00:34:29.859Z,63.84
2018-08-09T00:35:10.415Z,63.65
2018-08-09T00:35:51.786Z,63.55
2018-08-09T00:36:32.303Z,63.84
2018-08-09T00:37:12.871Z,63.84
2018-08-09T00:37:53.385Z,64.13
2018-08-09T00:38:33.945Z,63.84
2018-08-09T00:39:14.385Z,63.55
2018-08-09T00:39:54.865Z,63.75
2018-08-09T00:40:35.345Z,64.23
2018-08-09T00:41:15.990Z,63.94
2018-08-09T00:41:56.511Z,64.13
2018-08-09T00:42:36.994Z,63.94
2018-08-09T00:43:17.528Z,64.04
2018-08-09T00:43:57.999Z,64.04
2018-08-09T00:44:38.617Z,63.75
2018-08-09T00:45:19.134Z,63.65
2018-08-09T00:45:59.720Z,64.23
2018-08-09T00:46:40.155Z,63.84
2018-08-09T00:47:20.721Z,64.32
2018-08-09T00:48:01.276Z,64.42
2018-08-09T00:48:42.041Z,64.23
2018-08-09T00:49:22.708Z,64.1
2018-08-09T00:50:03.114Z,64.04
2018-08-09T00:50:43.792Z,64.04
2018-08-09T00:51:24.181Z,63.75
2018-08-09T00:52:04.708Z,63.55
2018-08-09T00:52:45.218Z,64.32
2018-08-09T00:53:25.664Z,63.94
2018-08-09T00:54:06.159Z,64.13
2018-08-09T00:54:46.806Z,64.13
2018-08-09T00:55:28.044Z,63.94
2018-08-09T00:56:08.545Z,63.75
2018-08-09T00:56:49.034Z,64.13
2018-08-09T00:57:29.603Z,64.13
2018-08-09T00:58:10.069Z,64.23
2018-08-09T00:58:50.590Z,64.29
2018-08-09T00:59:31.107Z,65.08
2018-08-09T01:00:11.637Z,65.17
2018-08-09T01:00:52.138Z,64.59
2018-08-09T01:01:32.690Z,64.72
2018-08-09T01:02:13.240Z,65.11
2018-08-09T01:02:53.717Z,64.32
2018-08-09T01:03:34.302Z,64.49
2018-08-09T01:04:14.903Z,64.32
2018-08-09T01:04:55.436Z,63.94
2018-08-09T01:05:36.005Z,63.94
2018-08-09T01:06:16.451Z,63.94
2018-08-09T01:06:57.075Z,63.94
2018-08-09T01:07:37.559Z,64.13
2018-08-09T01:09:36.126Z,64.13
2018-08-09T01:10:16.670Z,63.94
2018-08-09T01:10:57.192Z,63.84
2018-08-09T01:11:37.733Z,64.23
2018-08-09T01:12:18.225Z,63.94
2018-08-09T01:12:59.356Z,63.94
2018-08-09T01:13:39.908Z,64.04
2018-08-09T01:14:20.549Z,63.94
2018-08-09T01:15:01.168Z,63.84
2018-08-09T01:15:41.630Z,63.65
2018-08-09T01:16:22.160Z,63.81
2018-08-09T01:17:02.786Z,64.2
2018-08-09T01:17:43.606Z,64.04
2018-08-09T01:18:24.396Z,64.04
2018-08-09T01:19:04.879Z,63.94
2018-08-09T01:19:45.501Z,63.9
2018-08-09T01:20:26.202Z,64
2018-08-09T01:21:06.714Z,64.32
2018-08-09T01:21:47.166Z,64.13
2018-08-09T01:22:27.755Z,63.55
2018-08-09T01:23:08.370Z,63.55
2018-08-09T01:23:48.858Z,63.62
2018-08-09T01:24:29.411Z,63.9
2018-08-09T01:25:09.967Z,63.52
2018-08-09T01:25:50.460Z,64.1
2018-08-09T01:26:30.983Z,64.2
2018-08-09T01:27:11.474Z,63.45
2018-08-09T01:27:51.973Z,63.9
2018-08-09T01:28:32.472Z,63.71
2018-08-09T01:29:13.104Z,63.71
2018-08-09T01:29:54.371Z,63.52
2018-08-09T01:30:34.244Z,63.81
2018-08-09T01:31:14.910Z,63.52
2018-08-09T01:31:55.384Z,63.42
2018-08-09T01:32:35.882Z,63.9
2018-08-09T01:33:16.444Z,64.2
2018-08-09T01:33:56.986Z,64.2
2018-08-09T01:34:37.515Z,64.04
2018-08-09T01:35:18.007Z,63.62
2018-08-09T01:35:58.636Z,63.9
2018-08-09T01:36:39.104Z,63.94
2018-08-09T01:37:19.552Z,63.9
2018-08-09T01:38:00.070Z,63.9
2018-08-09T01:38:40.624Z,64.1
2018-08-09T01:39:21.211Z,64.1
2018-08-09T01:40:01.758Z,63.94
2018-08-09T01:40:42.318Z,63.71
2018-08-09T01:41:22.814Z,63.71
2018-08-09T01:42:03.274Z,63.81
2018-08-09T01:42:43.958Z,63.81
2018-08-09T01:43:24.555Z,63.9
2018-08-09T01:44:04.949Z,63.9
2018-08-09T01:44:45.510Z,63.9
2018-08-09T01:45:26.022Z,64
2018-08-09T01:46:06.468Z,63.9
2018-08-09T01:46:46.972Z,63.94
2018-08-09T01:47:27.440Z,64.39
2018-08-09T01:48:07.933Z,64.59
2018-08-09T01:48:48.395Z,64.2
2018-08-09T01:49:28.860Z,63.9
2018-08-09T01:50:09.390Z,64.2
2018-08-09T01:50:49.903Z,64.1
2018-08-09T01:51:30.467Z,63.9
2018-08-09T01:52:10.957Z,63.9
2018-08-09T01:52:51.512Z,64.49
2018-08-09T01:53:31.946Z,64.29
2018-08-09T01:54:12.422Z,64.78
2018-08-09T01:54:52.922Z,64.49
2018-08-09T01:55:33.469Z,64.49
2018-08-09T01:56:13.911Z,64.59
2018-08-09T01:56:54.388Z,64.49
2018-08-09T01:57:34.937Z,64.59
2018-08-09T01:58:15.481Z,64.88
2018-08-09T01:58:55.934Z,64.98
2018-08-09T01:59:36.596Z,64.88
2018-08-09T02:00:17.109Z,64.78
2018-08-09T02:00:57.593Z,64.69
2018-08-09T02:01:38.132Z,65.37
2018-08-09T02:02:18.674Z,64.98
2018-08-09T02:02:59.227Z,65.27
2018-08-09T02:03:39.696Z,64.98
2018-08-09T02:04:20.221Z,64.88
2018-08-09T02:05:00.748Z,64.98
2018-08-09T02:05:41.288Z,64.98
2018-08-09T02:06:21.817Z,65.37
2018-08-09T02:07:02.236Z,65.17
2018-08-09T02:07:42.896Z,65.56
2018-08-09T02:08:23.446Z,65.37
2018-08-09T02:09:03.980Z,65.56
2018-08-09T02:09:44.424Z,65.95
2018-08-09T02:10:24.954Z,65.56
2018-08-09T02:11:05.445Z,66.14
2018-08-09T02:11:45.981Z,65.66
2018-08-09T02:12:26.464Z,65.75
2018-08-09T02:13:06.998Z,65.56
2018-08-09T02:13:47.545Z,65.56
2018-08-09T02:14:28.043Z,66.5
2018-08-09T02:15:08.579Z,66.24
2018-08-09T02:15:49.055Z,66.24
2018-08-09T02:16:29.590Z,65.92
2018-08-09T02:17:10.059Z,66.24
2018-08-09T02:17:50.533Z,66.53
2018-08-09T02:18:31.040Z,66.14
2018-08-09T02:19:11.533Z,66.63
2018-08-09T02:19:52.004Z,66.63
2018-08-09T02:20:32.514Z,66.34
2018-08-09T02:21:13.026Z,66.34
2018-08-09T02:21:53.559Z,66.44
2018-08-09T02:22:34.072Z,66.63
2018-08-09T02:23:14.583Z,66.02
2018-08-09T02:23:55.031Z,66.14
2018-08-09T02:24:35.569Z,66.44
2018-08-09T02:25:16.059Z,66.34
2018-08-09T02:25:56.505Z,66.24
2018-08-09T02:26:36.999Z,66.05
2018-08-09T02:27:17.504Z,67.31
2018-08-09T02:27:58.032Z,67.02
2018-08-09T02:28:38.640Z,67.08
2018-08-09T02:29:19.055Z,67.02
2018-08-09T02:29:59.581Z,67.02
2018-08-09T02:30:40.050Z,67.08
2018-08-09T02:31:20.662Z,67.18
2018-08-09T02:32:01.132Z,66.79
2018-08-09T02:32:41.666Z,66.99
2018-08-09T02:33:22.130Z,66.99
2018-08-09T02:34:02.638Z,67.11
2018-08-09T02:34:43.119Z,67.02
2018-08-09T02:35:23.612Z,67.28
2018-08-09T02:36:04.094Z,67.28
2018-08-09T02:36:44.643Z,67.57
2018-08-09T02:37:25.147Z,67.57
2018-08-09T02:38:05.701Z,67.28
2018-08-09T02:38:46.259Z,67.38
2018-08-09T02:39:26.814Z,67.38
2018-08-09T02:40:07.302Z,67.21
2018-08-09T02:40:47.891Z,67.47
2018-08-09T02:41:28.302Z,67.86
2018-08-09T02:42:08.803Z,67.86
2018-08-09T02:42:49.549Z,67.76
2018-08-09T02:43:30.046Z,68.44
2018-08-09T02:44:10.572Z,68.44
2018-08-09T02:44:51.033Z,68.64
2018-08-09T02:45:31.456Z,68.84
2018-08-09T02:46:12.048Z,68.64
2018-08-09T02:46:52.520Z,68.44
2018-08-09T02:47:32.952Z,68.93
2018-08-09T02:48:13.465Z,68.9
2018-08-09T02:48:54.279Z,68.6
2018-08-09T02:49:34.707Z,68.8
2018-08-09T02:50:15.250Z,68.8
2018-08-09T02:50:55.747Z,68.8
2018-08-09T02:51:36.313Z,69.09
2018-08-09T02:52:16.790Z,69.09
2018-08-09T02:52:57.315Z,68.7
2018-08-09T02:53:37.868Z,68.7
2018-08-09T02:54:18.352Z,68.74
2018-08-09T02:54:58.771Z,68.84
2018-08-09T02:55:39.356Z,68.74
2018-08-09T02:56:19.900Z,68.51
2018-08-09T02:57:00.363Z,69.09
2018-08-09T02:57:40.865Z,69.58
2018-08-09T02:58:21.332Z,69.19
2018-08-09T02:59:01.947Z,69.38
2018-08-09T02:59:42.505Z,69.19
2018-08-09T03:00:23.204Z,69.48
2018-08-09T03:01:03.778Z,69.58
2018-08-09T03:01:44.217Z,69.19
2018-08-09T03:02:24.750Z,69.19
2018-08-09T03:03:05.326Z,69.29
2018-08-09T03:03:45.830Z,69.09
2018-08-09T03:04:26.360Z,69.09
2018-08-09T03:05:06.864Z,69.58
2018-08-09T03:05:47.311Z,69.09
2018-08-09T03:06:27.821Z,69.09
2018-08-09T03:07:08.366Z,68.99
2018-08-09T03:07:48.886Z,69.48
2018-08-09T03:08:29.313Z,69.09
2018-08-09T03:09:09.866Z,68.6
2018-08-09T03:09:50.398Z,68.9
2018-08-09T03:10:31.133Z,69.09
2018-08-09T03:11:11.631Z,69.29
2018-08-09T03:11:52.131Z,69.29
2018-08-09T03:12:32.972Z,68.84
2018-08-09T03:13:13.472Z,68.8
2018-08-09T03:13:53.991Z,68.99
2018-08-09T03:14:34.528Z,69.09
2018-08-09T03:15:15.016Z,69.29
2018-08-09T03:15:55.491Z,69.38
2018-08-09T03:16:36.294Z,69.29
2018-08-09T03:17:16.874Z,69.09
2018-08-09T03:17:57.338Z,69.19
2018-08-09T03:18:37.818Z,68.99
2018-08-09T03:19:18.284Z,69.09
2018-08-09T03:19:58.742Z,68.99
2018-08-09T03:20:39.417Z,69.29
2018-08-09T03:21:19.865Z,69.29
2018-08-09T03:22:00.482Z,69.38
2018-08-09T03:22:41.388Z,69.09
2018-08-09T03:23:22.448Z,69.09
2018-08-09T03:24:03.516Z,69.19
2018-08-09T03:24:44.128Z,69.09
2018-08-09T03:25:24.629Z,68.99
2018-08-09T03:26:05.124Z,69.58
2018-08-09T03:26:45.860Z,69.19
2018-08-09T03:27:26.330Z,69.29
2018-08-09T03:28:06.821Z,69.58
2018-08-09T03:28:47.310Z,69.38
2018-08-09T03:29:27.856Z,69.38
2018-08-09T03:30:08.496Z,69.29
2018-08-09T03:30:48.998Z,69.19
2018-08-09T03:31:29.484Z,69.19
2018-08-09T03:32:09.977Z,69.19
2018-08-09T03:32:50.520Z,69.09
2018-08-09T03:33:31.026Z,68.99
2018-08-09T03:34:11.526Z,69.96
2018-08-09T03:34:52.087Z,69.77
2018-08-09T03:35:32.598Z,69.54
2018-08-09T03:36:13.037Z,70.06
2018-08-09T03:36:53.580Z,69.87
2018-08-09T03:37:34.069Z,69.74
2018-08-09T03:38:14.592Z,69.93
2018-08-09T03:38:55.122Z,70.16
2018-08-09T03:39:35.592Z,70.03
2018-08-09T03:40:16.442Z,70.12
2018-08-09T03:40:56.540Z,70.51
2018-08-09T03:41:37.038Z,70.03
2018-08-09T03:42:17.568Z,70.71
2018-08-09T03:42:57.985Z,70.71
2018-08-09T03:43:38.638Z,70.51
2018-08-09T03:44:19.148Z,70.67
2018-08-09T03:44:59.823Z,71.2
2018-08-09T03:45:40.512Z,70.39
2018-08-09T03:46:21.866Z,70.61
2018-08-09T03:47:02.384Z,70.22
2018-08-09T03:47:42.964Z,70.71
2018-08-09T03:48:23.465Z,70.22
2018-08-09T03:49:03.996Z,70.32
2018-08-09T03:49:44.455Z,69.84
2018-08-09T03:50:25.039Z,69.64
2018-08-09T03:51:05.491Z,69.84
2018-08-09T03:51:46.038Z,69.45
2018-08-09T03:52:30.353Z,69.35
2018-08-09T03:53:09.087Z,69.15
2018-08-09T03:53:49.536Z,69.74
2018-08-09T03:54:30.697Z,69.84
2018-08-09T03:55:11.221Z,69.54
2018-08-09T03:55:51.776Z,69.64
2018-08-09T03:56:32.258Z,69.64
2018-08-09T03:57:15.598Z,69.74
2018-08-09T03:57:56.092Z,69.84
2018-08-09T03:58:36.624Z,69.54
2018-08-09T03:59:17.111Z,69.84
2018-08-09T03:59:57.633Z,69.54
2018-08-09T04:00:38.091Z,69.74
2018-08-09T04:01:18.592Z,69.51
2018-08-09T04:01:59.071Z,69.74
2018-08-09T04:02:39.578Z,70.39
2018-08-09T04:03:20.199Z,70
2018-08-09T04:04:00.786Z,70.22
2018-08-09T04:04:41.447Z,70.39
2018-08-09T04:05:22.806Z,69.32
2018-08-09T04:06:03.309Z,70.48
2018-08-09T04:06:44.012Z,70.29
2018-08-09T04:07:24.518Z,70.19
2018-08-09T04:08:05.070Z,70.19
2018-08-09T04:08:45.562Z,70.32
2018-08-09T04:09:26.126Z,70
2018-08-09T04:10:06.658Z,70.19
2018-08-09T04:10:47.254Z,70.22
2018-08-09T04:11:27.778Z,69.93
2018-08-09T04:12:08.323Z,70.32
2018-08-09T04:12:48.787Z,70.19
2018-08-09T04:13:29.317Z,70.22
2018-08-09T04:14:09.914Z,70.39
2018-08-09T04:14:50.382Z,70.09
2018-08-09T04:15:30.874Z,70.57
2018-08-09T04:16:11.384Z,70.48
2018-08-09T04:16:51.940Z,71.16
2018-08-09T04:17:32.396Z,71.26
2018-08-09T04:18:12.886Z,71.22
2018-08-09T04:18:53.413Z,71.84
2018-08-09T04:19:33.988Z,71.84
2018-08-09T04:20:14.580Z,71.16
2018-08-09T04:20:55.013Z,71.64
2018-08-09T04:21:35.539Z,71.94
2018-08-09T04:22:16.047Z,71.64
2018-08-09T04:22:56.501Z,72.03
2018-08-09T04:23:36.979Z,72.33
2018-08-09T04:24:17.473Z,72.23
2018-08-09T04:24:57.982Z,71.84
2018-08-09T04:25:38.477Z,72.23
2018-08-09T04:26:18.990Z,72.42
2018-08-09T04:26:59.459Z,71.45
2018-08-09T04:27:40.008Z,71.55
2018-08-09T04:28:20.515Z,72.03
2018-08-09T04:29:00.963Z,72.23
2018-08-09T04:29:41.439Z,71.64
2018-08-09T04:30:22.352Z,71.84
2018-08-09T04:31:02.821Z,71.64
2018-08-09T04:31:43.269Z,71.74
2018-08-09T04:32:23.804Z,71.74
2018-08-09T04:33:04.307Z,71.64
2018-08-09T04:33:44.800Z,71.74
2018-08-09T04:34:25.294Z,71.36
2018-08-09T04:35:05.764Z,71.64
2018-08-09T04:35:46.278Z,71.84
2018-08-09T04:36:26.724Z,71.84
2018-08-09T04:37:07.250Z,71.7
2018-08-09T04:37:47.806Z,71.74
2018-08-09T04:38:28.345Z,72.09
2018-08-09T04:39:08.836Z,72.29
2018-08-09T04:39:49.368Z,71.9
2018-08-09T04:40:29.804Z,72.09
2018-08-09T04:41:10.339Z,72.49
2018-08-09T04:41:50.905Z,72.77
2018-08-09T04:42:31.341Z,72.19
2018-08-09T04:43:11.937Z,72.29
2018-08-09T04:43:52.466Z,72.67
2018-08-09T04:44:33.041Z,72.58
2018-08-09T04:45:13.650Z,73.26
2018-08-09T04:45:54.169Z,73.26
2018-08-09T04:46:34.644Z,72.19
2018-08-09T04:47:15.142Z,72.67
2018-08-09T04:47:55.649Z,73.36
2018-08-09T04:48:36.091Z,73.46
2018-08-09T04:49:16.682Z,73.26
2018-08-09T04:49:57.203Z,73.16
2018-08-09T04:50:37.605Z,73.46
2018-08-09T04:51:18.138Z,73.26
2018-08-09T04:51:58.702Z,72.67
2018-08-09T04:52:39.351Z,72.67
2018-08-09T04:53:20.054Z,73.32
2018-08-09T04:54:00.512Z,73.03
2018-08-09T04:54:40.945Z,73.26
2018-08-09T04:55:21.508Z,73.65
2018-08-09T04:56:02.074Z,73.32
2018-08-09T04:56:42.877Z,73.36
2018-08-09T04:57:23.369Z,73.65
2018-08-09T04:58:03.829Z,73.32
2018-08-09T04:58:45.541Z,73.13
2018-08-09T04:59:25.201Z,73.9
2018-08-09T05:00:05.674Z,73.55
2018-08-09T05:00:46.329Z,73.61
2018-08-09T05:01:26.895Z,73.65
2018-08-09T05:02:07.443Z,73.55
2018-08-09T05:02:48.799Z,73.46
2018-08-09T05:03:29.399Z,73.46
2018-08-09T05:04:10.100Z,74.04
2018-08-09T05:04:50.990Z,73.9
2018-08-09T05:05:31.636Z,74.29
2018-08-09T05:06:12.098Z,74.19
2018-08-09T05:06:52.641Z,73.9
2018-08-09T05:07:33.091Z,73.55
2018-08-09T05:08:14.533Z,73.94
2018-08-09T05:08:55.071Z,73.65
2018-08-09T05:09:35.668Z,73.71
2018-08-09T05:10:16.082Z,74.68
2018-08-09T05:10:56.629Z,74.68
2018-08-09T05:11:37.099Z,73.9
2018-08-09T05:12:17.719Z,73.84
2018-08-09T05:12:58.187Z,74.04
2018-08-09T05:13:38.847Z,74
2018-08-09T05:14:19.698Z,74.23
2018-08-09T05:15:00.292Z,73.74
2018-08-09T05:15:40.760Z,73.65
2018-08-09T05:16:21.228Z,73.84
2018-08-09T05:17:01.881Z,73.74
2018-08-09T05:17:42.338Z,73.74
2018-08-09T05:18:23.223Z,74.04
2018-08-09T05:19:03.694Z,73.36
2018-08-09T05:19:49.136Z,73.94
2018-08-09T05:20:26.588Z,73.55
2018-08-09T05:21:07.203Z,73.65
2018-08-09T05:21:47.721Z,73.94
2018-08-09T05:22:28.167Z,73.36
2018-08-09T05:23:08.698Z,73.74
2018-08-09T05:23:49.459Z,73.26
2018-08-09T05:24:29.710Z,73.55
2018-08-09T05:25:10.446Z,73.94
2018-08-09T05:25:50.852Z,74.49
2018-08-09T05:26:31.428Z,73.71
2018-08-09T05:27:11.950Z,74.04
2018-08-09T05:27:52.461Z,73.55
2018-08-09T05:28:32.933Z,73.65
2018-08-09T05:29:13.467Z,73.16
2018-08-09T05:29:54.054Z,73.26
2018-08-09T05:30:34.687Z,73.65
2018-08-09T05:31:15.137Z,73.55
2018-08-09T05:32:05.345Z,73.74
2018-08-09T05:32:45.830Z,73.46
2018-08-09T05:33:26.333Z,73.94
2018-08-09T05:34:07.046Z,73.36
2018-08-09T05:34:47.517Z,73.46
2018-08-09T05:35:28.092Z,73.3
2018-08-09T05:36:08.574Z,74.13
2018-08-09T05:36:49.040Z,73.78
2018-08-09T05:37:29.604Z,73.78
2018-08-09T05:38:10.146Z,73.36
2018-08-09T05:38:51.055Z,73.58
2018-08-09T05:39:31.362Z,73.39
2018-08-09T05:40:11.836Z,74.07
2018-08-09T05:40:52.264Z,74.17
2018-08-09T05:41:32.750Z,73.94
2018-08-09T05:42:13.319Z,73.68
2018-08-09T05:42:53.787Z,74.07
2018-08-09T05:45:07.102Z,73.3
2018-08-09T05:45:47.667Z,73.55
2018-08-09T05:46:28.234Z,73.58
2018-08-09T05:47:08.771Z,73.58
2018-08-09T05:47:49.335Z,73.1
2018-08-09T05:48:29.811Z,73.3
2018-08-09T05:49:10.422Z,73.46
2018-08-09T05:49:50.851Z,73.3
2018-08-09T05:50:31.477Z,73.49
2018-08-09T05:51:12.431Z,73.49
2018-08-09T05:51:53.097Z,73.1
2018-08-09T05:52:33.637Z,73.49
2018-08-09T05:53:14.304Z,73.3
2018-08-09T05:53:54.911Z,73.39
2018-08-09T05:54:35.283Z,73.3
2018-08-09T05:55:16.024Z,73.68
2018-08-09T05:55:56.588Z,73.68
2018-08-09T05:56:37.350Z,73.88
2018-08-09T05:57:18.216Z,73.78
2018-08-09T05:57:59.195Z,73.78
2018-08-09T05:58:39.916Z,73.68
2018-08-09T05:59:20.528Z,73.58
2018-08-09T06:00:01.300Z,73.68
2018-08-09T06:02:14.714Z,73.39
2018-08-09T06:02:55.274Z,73.3
2018-08-09T06:03:36.204Z,73.2
2018-08-09T06:04:16.716Z,72.75
2018-08-09T06:04:57.484Z,72.07
2018-08-09T06:05:38.137Z,72.17
2018-08-09T06:06:18.550Z,72.65
2018-08-09T06:08:20.538Z,71.88
2018-08-09T06:09:01.138Z,71.88
2018-08-09T06:09:41.910Z,71.88
2018-08-09T06:10:22.606Z,71.58
2018-08-09T06:11:03.219Z,71.68
2018-08-09T06:11:45.134Z,71.97
2018-08-09T06:12:26.906Z,71.29
2018-08-09T06:13:07.909Z,71.81
2018-08-09T06:13:51.421Z,71
2018-08-09T06:14:32.364Z,71.1
2018-08-09T06:15:12.878Z,71.33
2018-08-09T06:15:53.370Z,71.33
2018-08-09T06:16:33.808Z,71.23
2018-08-09T06:17:14.394Z,71.52
2018-08-09T06:17:54.872Z,71.78
2018-08-09T06:18:35.382Z,70.94
2018-08-09T06:19:15.901Z,71.2
2018-08-09T06:19:56.441Z,71.33
2018-08-09T06:20:37.102Z,71.23
2018-08-09T06:21:17.579Z,71.42
2018-08-09T06:21:58.240Z,70.45
2018-08-09T06:22:38.781Z,70.55
2018-08-09T06:23:19.261Z,70.94
2018-08-09T06:23:59.987Z,70.06
2018-08-09T06:24:40.631Z,70.26
2018-08-09T06:25:21.160Z,70.16
2018-08-09T06:26:01.680Z,69.96
2018-08-09T06:26:42.223Z,70.16
2018-08-09T06:27:22.657Z,70.06
2018-08-09T06:28:03.107Z,69.48
2018-08-09T06:28:43.752Z,69.77
2018-08-09T06:29:24.192Z,69.71
2018-08-09T06:30:04.785Z,69.61
2018-08-09T06:30:45.418Z,69.38
2018-08-09T06:31:26.011Z,69.87
2018-08-09T06:32:06.491Z,69.22
2018-08-09T06:32:46.953Z,69.32
2018-08-09T06:33:27.620Z,69.03
2018-08-09T06:34:08.184Z,69.22
2018-08-09T06:34:49.025Z,69.03
2018-08-09T06:35:29.833Z,69.32
2018-08-09T06:36:10.323Z,69.13
2018-08-09T06:38:09.177Z,69.42
2018-08-09T06:38:49.646Z,69.32
2018-08-09T06:39:30.265Z,69.32
2018-08-09T06:40:10.720Z,69.32
2018-08-09T06:40:51.257Z,69.13
2018-08-09T06:41:31.683Z,69.42
2018-08-09T06:42:12.132Z,69.13
2018-08-09T06:42:52.620Z,68.93
2018-08-09T06:43:33.289Z,69.13
2018-08-09T06:44:13.832Z,68.84
2018-08-09T06:44:54.365Z,68.84
2018-08-09T06:45:34.875Z,68.84
2018-08-09T06:46:15.298Z,68.84
2018-08-09T06:46:55.829Z,68.74
2018-08-09T06:47:36.409Z,68.84
2018-08-09T06:48:16.989Z,68.96
2018-08-09T06:48:57.576Z,68.64
2018-08-09T06:49:38.119Z,68.67
2018-08-09T06:50:19.056Z,68.38
2018-08-09T06:50:59.153Z,68.77
2018-08-09T06:51:39.706Z,68.61
2018-08-09T06:52:20.203Z,67.93
2018-08-09T06:53:00.740Z,67.63
2018-08-09T06:53:41.246Z,67.63
2018-08-09T06:54:21.743Z,67.25
2018-08-09T06:55:02.923Z,66.76
2018-08-09T06:55:43.418Z,67.15
2018-08-09T06:56:23.962Z,66.96
2018-08-09T06:57:04.472Z,66.86
2018-08-09T06:57:45.000Z,67.05
2018-08-09T06:58:25.472Z,67.44
2018-08-09T06:59:06.042Z,67.44
2018-08-09T06:59:46.597Z,67.05
2018-08-09T07:00:27.112Z,67.83
2018-08-09T07:01:07.657Z,67.54
2018-08-09T07:01:48.220Z,67.73
2018-08-09T07:02:28.951Z,67.44
2018-08-09T07:03:09.597Z,67.8
2018-08-09T07:03:50.101Z,67.7
2018-08-09T07:04:30.587Z,67.35
2018-08-09T07:05:11.102Z,67.54
2018-08-09T07:05:51.621Z,67.44
2018-08-09T07:06:32.095Z,67.25
2018-08-09T07:07:12.753Z,67.05
2018-08-09T07:07:53.304Z,66.6
2018-08-09T07:08:33.845Z,66.69
2018-08-09T07:09:14.297Z,66.02
2018-08-09T07:09:54.738Z,66.02
2018-08-09T07:10:35.234Z,66.02
2018-08-09T07:11:16.946Z,65.43
2018-08-09T07:11:57.399Z,65.56
2018-08-09T07:12:37.920Z,65.17
2018-08-09T07:13:18.377Z,65.07
2018-08-09T07:13:59.165Z,65.17
2018-08-09T07:14:39.469Z,65.17
2018-08-09T07:15:19.979Z,65.07
2018-08-09T07:16:00.474Z,64.69
2018-08-09T07:16:40.982Z,64.52
2018-08-09T07:17:21.435Z,64.78
2018-08-09T07:18:01.994Z,64.59
2018-08-09T07:18:42.506Z,64.29
2018-08-09T07:19:23.012Z,64.2
2018-08-09T07:20:04.244Z,64.29
2018-08-09T07:20:44.921Z,64.23
2018-08-09T07:21:25.412Z,63.84
2018-08-09T07:22:05.938Z,64.23
2018-08-09T07:22:46.374Z,64.42
2018-08-09T07:23:26.871Z,63.74
2018-08-09T07:24:07.387Z,63.74
2018-08-09T07:24:47.881Z,63.74
2018-08-09T07:25:28.406Z,64.23
2018-08-09T07:26:08.981Z,64.03
2018-08-09T07:26:49.513Z,64.03
2018-08-09T07:27:30.187Z,63.93
2018-08-09T07:28:10.794Z,63.93
2018-08-09T07:28:51.301Z,64.03
2018-08-09T07:29:31.829Z,64.03
2018-08-09T07:30:12.351Z,64.32
2018-08-09T07:30:52.887Z,63.93
2018-08-09T07:31:33.345Z,63.93
2018-08-09T07:32:13.844Z,64.52
2018-08-09T07:32:54.386Z,63.84
2018-08-09T07:33:34.891Z,63.93
2018-08-09T07:34:15.433Z,63.96
2018-08-09T07:34:55.907Z,63.57
2018-08-09T07:35:36.438Z,63.57
2018-08-09T07:36:16.930Z,64.06
2018-08-09T07:36:57.483Z,63.87
2018-08-09T07:37:37.993Z,63.48
2018-08-09T07:38:18.456Z,63.57
2018-08-09T07:38:58.986Z,63.67
2018-08-09T07:39:39.553Z,63.57
2018-08-09T07:40:19.980Z,63.48
2018-08-09T07:41:00.464Z,63.48
2018-08-09T07:41:41.598Z,62.99
2018-08-09T07:42:22.143Z,63.21
2018-08-09T07:43:02.701Z,63.51
2018-08-09T07:43:43.186Z,62.73
2018-08-09T07:44:23.686Z,62.7
2018-08-09T07:45:04.318Z,62.82
2018-08-09T07:45:44.857Z,62.73
2018-08-09T07:46:25.344Z,62.6
2018-08-09T07:47:05.859Z,62.53
2018-08-09T07:47:46.374Z,62.82
2018-08-09T07:48:27.647Z,62.73
2018-08-09T07:49:08.108Z,62.92
2018-08-09T07:49:48.569Z,62.63
2018-08-09T07:50:29.085Z,63.12
2018-08-09T07:51:09.667Z,62.73
2018-08-09T07:51:50.232Z,62.63
2018-08-09T07:52:30.921Z,62.82
2018-08-09T07:53:11.403Z,62.73
2018-08-09T07:53:52.357Z,62.53
2018-08-09T07:54:33.147Z,62.53
2018-08-09T07:55:13.737Z,62.34
2018-08-09T07:55:54.297Z,62.53
2018-08-09T07:56:34.993Z,62.73
2018-08-09T07:57:15.452Z,62.53
2018-08-09T07:57:55.907Z,62.53
2018-08-09T07:58:36.511Z,62.34
2018-08-09T07:59:17.142Z,62.34
2018-08-09T07:59:57.675Z,62.56
2018-08-09T08:00:38.162Z,62.27
2018-08-09T08:01:18.865Z,62.47
2018-08-09T08:01:59.403Z,62.66
2018-08-09T08:02:39.804Z,62.47
2018-08-09T08:03:20.350Z,62.85
2018-08-09T08:04:00.833Z,62.76
2018-08-09T08:04:41.376Z,62.47
2018-08-09T08:05:21.914Z,62.37
2018-08-09T08:06:02.384Z,61.88
2018-08-09T08:06:42.854Z,61.88
2018-08-09T08:07:24.233Z,61.88
2018-08-09T08:08:04.928Z,61.88
2018-08-09T08:08:45.471Z,61.98
2018-08-09T08:09:26.086Z,62.27
2018-08-09T08:10:06.699Z,62.15
2018-08-09T08:10:47.331Z,62.27
2018-08-09T08:11:28.207Z,62.18
2018-08-09T08:12:09.519Z,62.37
2018-08-09T08:12:49.936Z,62.18
2018-08-09T08:13:30.457Z,61.98
2018-08-09T08:14:10.922Z,62.18
2018-08-09T08:14:51.477Z,62.08
2018-08-09T08:15:31.998Z,62.08
2018-08-09T08:16:12.700Z,61.88
2018-08-09T08:16:53.233Z,61.98
2018-08-09T08:17:33.624Z,62.08
2018-08-09T08:18:14.170Z,62.05
2018-08-09T08:18:54.746Z,62.05
2018-08-09T08:19:35.421Z,62.08
2018-08-09T08:20:15.958Z,61.88
2018-08-09T08:20:56.472Z,61.95
2018-08-09T08:21:37.052Z,62.53
2018-08-09T08:22:17.544Z,62.82
2018-08-09T08:22:58.047Z,62.24
2018-08-09T08:23:38.708Z,62.05
2018-08-09T08:24:19.989Z,61.95
2018-08-09T08:25:00.550Z,62.44
2018-08-09T08:25:41.126Z,62.85
2018-08-09T08:26:21.768Z,63.05
2018-08-09T08:27:02.243Z,62.73
2018-08-09T08:27:42.731Z,62.73
2018-08-09T08:28:23.293Z,62.53
2018-08-09T08:29:03.805Z,62.44
2018-08-09T08:29:44.252Z,62.44
2018-08-09T08:30:24.800Z,62.53
2018-08-09T08:31:05.876Z,62.53
2018-08-09T08:31:45.784Z,62.53
2018-08-09T08:32:26.386Z,62.63
2018-08-09T08:33:06.871Z,62.73
2018-08-09T08:33:47.379Z,62.53
2018-08-09T08:34:27.908Z,62.24
2018-08-09T08:35:08.387Z,62.34
2018-08-09T08:35:49.055Z,62.15
2018-08-09T08:36:29.703Z,62.73
2018-08-09T08:37:10.238Z,62.44
2018-08-09T08:37:51.845Z,62.63
2018-08-09T08:38:32.462Z,62.63
2018-08-09T08:39:12.923Z,62.82
2018-08-09T08:39:53.470Z,62.47
2018-08-09T08:40:33.981Z,62.66
2018-08-09T08:41:15.457Z,62.44
2018-08-09T08:41:55.996Z,62.27
2018-08-09T08:42:36.554Z,62.27
2018-08-09T08:43:17.087Z,62.66
2018-08-09T08:43:57.633Z,62.66
2018-08-09T08:44:38.148Z,62.56
2018-08-09T08:45:18.735Z,62.47
2018-08-09T08:45:59.279Z,62.18
2018-08-09T08:46:39.719Z,61.98
2018-08-09T08:47:20.306Z,61.59
2018-08-09T08:48:00.892Z,61.3
2018-08-09T08:48:41.250Z,61.4
2018-08-09T08:49:22.016Z,61.4
2018-08-09T08:50:02.541Z,61
2018-08-09T08:50:43.208Z,60.91
2018-08-09T08:51:23.867Z,61